Time;durP1;ratioP1;P1;durP2;ratioP2;P2;SDS_P1;SDS_P2;PMS_P1;PMS_P2;Temp;Humidity;BMP_temperature;BMP_pressure;BME280_temperature;BME280_humidity;BME280_pressure;Samples;Min_cycle;Max_cycle;Signal;HPM_P1;HPM_P2
2022/12/21 00:00:21;;;;;;;3.50;2.90;;;10.10;99.90;;;;;;4964896;28;20030;-82
2022/12/21 00:02:47;;;;;;;7.15;5.70;;;10.10;99.90;;;;;;4966228;28;20030;-82
2022/12/21 00:05:13;;;;;;;8.23;6.28;;;10.10;99.90;;;;;;4949903;28;20034;-82
2022/12/21 00:07:38;;;;;;;8.70;5.80;;;10.10;99.90;;;;;;4962863;28;20082;-82
2022/12/21 00:10:04;;;;;;;8.48;5.22;;;10.10;99.90;;;;;;4950251;28;20034;-83
2022/12/21 00:12:30;;;;;;;10.32;6.22;;;10.10;99.90;;;;;;4954219;28;20106;-82
2022/12/21 00:14:55;;;;;;;11.05;6.22;;;10.10;99.90;;;;;;4964882;28;20038;-82
2022/12/21 00:17:21;;;;;;;10.10;8.32;;;10.10;99.90;;;;;;4963280;28;20056;-83
2022/12/21 00:19:46;;;;;;;8.40;6.60;;;10.10;99.90;;;;;;4966872;28;20558;-82
2022/12/21 00:22:12;;;;;;;8.65;5.28;;;10.10;99.90;;;;;;4953895;28;20555;-83
2022/12/21 00:24:38;;;;;;;9.50;7.45;;;10.10;99.90;;;;;;4950748;28;20074;-82
2022/12/21 00:27:03;;;;;;;9.43;7.70;;;10.10;99.90;;;;;;4966031;28;20031;-82
2022/12/21 00:29:29;;;;;;;21.52;12.32;;;10.10;99.90;;;;;;4962988;28;20042;-82
2022/12/21 00:31:55;;;;;;;12.00;9.32;;;10.10;99.90;;;;;;4966875;28;20030;-82
2022/12/21 00:34:21;;;;;;;9.45;6.22;;;10.10;99.90;;;;;;4969919;28;20030;-82
2022/12/21 00:36:47;;;;;;;17.65;10.63;;;10.10;99.90;;;;;;4961222;28;20033;-83
2022/12/21 00:39:13;;;;;;;11.23;8.10;;;10.10;99.90;;;;;;4967825;28;20121;-82
2022/12/21 00:41:38;;;;;;;7.95;5.78;;;10.10;99.90;;;;;;4969652;28;20125;-82
2022/12/21 00:44:04;;;;;;;13.43;9.57;;;10.10;99.90;;;;;;4964275;28;20469;-83
2022/12/21 00:46:30;;;;;;;10.88;8.65;;;10.10;99.90;;;;;;4965185;28;20038;-82
2022/12/21 00:48:57;;;;;;;10.13;6.50;;;10.10;99.90;;;;;;4969695;28;20045;-82
2022/12/21 00:51:23;;;;;;;7.38;4.70;;;10.10;99.90;;;;;;4953871;28;20540;-82
2022/12/21 00:53:49;;;;;;;10.50;8.27;;;10.20;99.90;;;;;;4951391;28;20037;-83
2022/12/21 00:56:15;;;;;;;11.80;8.32;;;10.10;99.90;;;;;;4942704;28;20491;-83
2022/12/21 00:58:41;;;;;;;13.05;9.90;;;10.10;99.90;;;;;;4958841;28;20037;-82
2022/12/21 01:01:15;;;;;;;11.32;7.80;;;10.10;99.90;;;;;;4967576;28;20030;-82
2022/12/21 01:03:40;;;;;;;10.18;7.80;;;10.10;99.90;;;;;;4950257;28;20170;-83
2022/12/21 01:06:06;;;;;;;11.65;7.95;;;10.00;99.90;;;;;;4958557;28;20611;-82
2022/12/21 01:08:31;;;;;;;11.95;8.50;;;10.10;99.90;;;;;;4970039;28;20042;-82
2022/12/21 01:11:00;;;;;;;10.60;7.80;;;10.10;99.90;;;;;;4968535;28;20117;-83
2022/12/21 01:13:26;;;;;;;13.27;9.05;;;10.00;99.90;;;;;;4953522;28;20101;-82
2022/12/21 01:15:52;;;;;;;11.10;9.52;;;10.10;99.90;;;;;;4957902;28;20031;-82
2022/12/21 01:18:17;;;;;;;15.13;9.68;;;10.10;99.90;;;;;;4953167;28;20894;-82
2022/12/21 01:20:50;;;;;;;10.38;9.13;;;10.10;99.90;;;;;;4968483;28;20057;-82
2022/12/21 01:23:16;;;;;;;18.00;12.32;;;10.10;99.90;;;;;;4945484;28;20038;-82
2022/12/21 01:25:42;;;;;;;15.15;10.50;;;10.10;99.90;;;;;;4969375;28;20081;-82
2022/12/21 01:28:08;;;;;;;14.40;10.50;;;10.00;99.90;;;;;;4966750;28;20026;-83
2022/12/21 01:30:34;;;;;;;15.13;10.88;;;10.00;99.90;;;;;;4946547;28;20037;-82
2022/12/21 01:32:59;;;;;;;12.30;9.50;;;10.00;99.90;;;;;;4968563;28;20084;-82
2022/12/21 01:35:25;;;;;;;12.55;8.52;;;10.00;99.90;;;;;;4981171;28;20533;-83
2022/12/21 01:37:50;;;;;;;13.10;8.55;;;10.00;99.90;;;;;;4952160;28;20129;-83
2022/12/21 01:40:16;;;;;;;19.90;13.50;;;10.00;99.90;;;;;;4952984;28;20077;-83
2022/12/21 01:42:41;;;;;;;15.55;10.25;;;10.00;99.90;;;;;;4951151;28;20088;-82
2022/12/21 01:45:22;;;;;;;16.33;11.43;;;10.10;99.90;;;;;;4947216;28;20450;-83
2022/12/21 01:47:58;;;;;;;17.77;10.70;;;10.00;99.90;;;;;;4972316;28;20025;-83
2022/12/21 01:50:32;;;;;;;16.10;10.00;;;10.00;99.90;;;;;;4948261;28;20035;-83
2022/12/21 01:53:03;;;;;;;15.15;9.45;;;10.00;99.90;;;;;;4964036;28;20121;-83
2022/12/21 01:55:29;;;;;;;22.20;14.00;;;10.00;99.90;;;;;;4975772;28;20030;-83
2022/12/21 01:57:54;;;;;;;18.52;12.02;;;10.00;99.90;;;;;;4949633;28;20042;-82
2022/12/21 02:00:20;;;;;;;23.10;14.93;;;10.00;99.90;;;;;;4968047;28;20422;-82
2022/12/21 02:02:51;;;;;;;19.65;12.00;;;10.00;99.90;;;;;;4952056;28;20478;-82
2022/12/21 02:05:28;;;;;;;19.35;12.25;;;10.00;99.90;;;;;;4966939;28;20058;-82
2022/12/21 02:07:57;;;;;;;23.17;14.15;;;10.00;99.90;;;;;;4982754;28;20037;-83
2022/12/21 02:10:22;;;;;;;18.10;11.82;;;10.00;99.90;;;;;;4963794;28;20043;-82
2022/12/21 02:12:48;;;;;;;18.25;12.05;;;10.00;99.90;;;;;;4966648;28;20517;-83
2022/12/21 02:15:14;;;;;;;20.65;10.90;;;9.90;99.90;;;;;;4943749;28;20077;-83
2022/12/21 02:18:07;;;;;;;16.90;11.57;;;10.00;99.90;;;;;;4949280;28;20516;-82
2022/12/21 02:20:45;;;;;;;14.75;6.72;;;10.00;99.90;;;;;;4973770;28;20746;-82
2022/12/21 02:23:34;;;;;;;18.40;11.20;;;10.00;99.90;;;;;;4982728;28;20027;-82
2022/12/21 02:26:06;;;;;;;18.30;11.60;;;10.00;99.90;;;;;;4962884;28;20038;-83
2022/12/21 02:28:52;;;;;;;20.77;13.88;;;10.00;99.90;;;;;;4975520;28;20042;-82
2022/12/21 02:31:18;;;;;;;;;;;10.00;99.90;;;;;;4984229;28;20169;-82
2022/12/21 02:33:59;;;;;;;15.83;11.07;;;9.90;99.90;;;;;;4967271;28;20285;-82
2022/12/21 02:37:01;;;;;;;20.23;12.98;;;9.90;99.90;;;;;;4968962;28;20128;-83
2022/12/21 02:39:44;;;;;;;19.83;12.60;;;9.90;99.90;;;;;;4967788;28;20026;-82
2022/12/21 02:45:33;;;;;;;16.60;11.82;;;9.90;99.90;;;;;;4984908;28;20065;-82
2022/12/21 02:48:04;;;;;;;15.90;9.70;;;10.00;99.90;;;;;;4973831;28;20030;-82
2022/12/21 02:50:33;;;;;;;14.68;10.32;;;9.90;99.90;;;;;;4968113;28;20034;-82
2022/12/21 02:53:05;;;;;;;17.83;10.15;;;9.90;99.90;;;;;;4948318;28;20125;-82
2022/12/21 02:55:30;;;;;;;17.98;12.13;;;10.00;99.90;;;;;;4951613;28;20431;-82
2022/12/21 02:58:16;;;;;;;19.52;11.00;;;10.00;99.90;;;;;;4966982;28;20121;-82
2022/12/21 03:00:48;;;;;;;14.48;9.85;;;10.00;99.90;;;;;;4960088;28;20029;-82
2022/12/21 03:06:31;;;;;;;14.27;10.18;;;10.00;99.90;;;;;;4982216;28;20041;-82
2022/12/21 03:09:05;;;;;;;14.90;10.13;;;10.00;99.90;;;;;;4967354;28;20043;-82
2022/12/21 03:11:40;;;;;;;15.48;10.05;;;9.90;99.90;;;;;;4982571;28;20049;-82
2022/12/21 03:14:19;;;;;;;14.35;9.10;;;9.90;99.90;;;;;;4984426;28;21039;-83
2022/12/21 03:16:51;;;;;;;15.45;10.32;;;9.90;99.90;;;;;;4944166;28;20030;-82
2022/12/21 03:19:38;;;;;;;14.10;9.65;;;9.90;99.90;;;;;;4967967;28;20039;-82
2022/12/21 03:22:14;;;;;;;18.25;12.45;;;9.90;99.90;;;;;;4949408;28;20427;-82
2022/12/21 03:24:45;;;;;;;19.23;11.13;;;9.90;99.90;;;;;;4968417;28;20026;-82
2022/12/21 03:27:19;;;;;;;12.82;9.23;;;10.00;99.90;;;;;;4971034;28;20037;-83
2022/12/21 03:30:09;;;;;;;14.02;10.00;;;9.90;99.90;;;;;;4950636;28;20039;-82
2022/12/21 03:32:36;;;;;;;14.52;9.07;;;9.90;99.90;;;;;;4982674;28;20564;-82
2022/12/21 03:35:02;;;;;;;16.25;10.25;;;10.00;99.90;;;;;;4984040;28;20081;-83
2022/12/21 03:37:31;;;;;;;14.70;9.25;;;10.00;99.90;;;;;;4957340;28;20035;-82
2022/12/21 03:40:20;;;;;;;16.23;10.88;;;9.90;99.90;;;;;;4966715;28;20070;-83
2022/12/21 03:42:49;;;;;;;17.80;10.25;;;10.00;99.90;;;;;;4966597;28;20034;-83
2022/12/21 03:45:21;;;;;;;15.23;9.48;;;10.00;99.90;;;;;;4950429;28;20056;-83
2022/12/21 03:47:57;;;;;;;21.10;11.93;;;10.00;99.90;;;;;;4943134;28;20037;-82
2022/12/21 03:50:25;;;;;;;14.73;9.77;;;10.00;99.90;;;;;;4983740;28;20511;-83
2022/12/21 03:53:04;;;;;;;17.02;11.05;;;9.90;99.90;;;;;;4951344;28;20035;-82
2022/12/21 03:55:31;;;;;;;17.90;10.63;;;9.90;99.90;;;;;;4967006;28;20030;-83
2022/12/21 03:57:59;;;;;;;17.95;10.43;;;10.00;99.90;;;;;;4966700;28;20548;-82
2022/12/21 04:00:25;;;;;;;14.05;10.05;;;9.90;99.90;;;;;;4944257;28;20027;-82
2022/12/21 04:03:22;;;;;;;15.00;9.98;;;10.00;99.90;;;;;;4953847;28;20548;-83
2022/12/21 04:05:49;;;;;;;;;;;10.00;99.90;;;;;;4964888;28;20062;-83
2022/12/21 04:08:15;;;;;;;14.95;8.90;;;10.00;99.90;;;;;;4955592;28;19913;-83
2022/12/21 04:10:41;;;;;;;20.98;9.55;;;10.00;99.90;;;;;;4953953;28;20399;-82
2022/12/21 04:13:06;;;;;;;13.85;8.95;;;10.00;99.90;;;;;;4969954;28;20027;-83
2022/12/21 04:19:57;;;;;;;16.60;10.15;;;10.00;99.90;;;;;;4967824;28;20033;-82
2022/12/21 04:21:02;;;;;;;18.13;11.10;;;10.00;99.90;;;;;;4973391;28;20030;-82
2022/12/21 04:28:56;;;;;;;14.10;9.15;;;9.90;99.90;;;;;;4972629;28;20557;-82
2022/12/21 04:31:22;;;;;;;14.63;9.68;;;10.00;99.90;;;;;;4969723;28;20113;-82
2022/12/21 04:33:47;;;;;;;18.15;10.82;;;10.00;99.90;;;;;;4987114;28;20027;-82
2022/12/21 04:38:57;;;;;;;15.75;10.15;;;9.90;99.90;;;;;;4973434;28;20164;-82
2022/12/21 04:41:22;;;;;;;24.15;13.23;;;9.90;99.90;;;;;;4970856;28;20030;-82
2022/12/21 04:43:48;;;;;;;15.75;10.20;;;9.90;99.90;;;;;;4970017;28;20032;-82
2022/12/21 04:46:14;;;;;;;18.08;10.38;;;9.90;99.90;;;;;;4966928;28;20449;-81
2022/12/21 04:48:41;;;;;;;17.20;9.77;;;9.90;99.90;;;;;;4954284;28;20114;-81
2022/12/21 04:51:14;;;;;;;18.17;10.25;;;9.80;99.90;;;;;;4949683;28;20031;-82
2022/12/21 04:53:39;;;;;;;16.88;10.07;;;9.90;99.90;;;;;;4954461;28;20065;-81
2022/12/21 04:56:05;;;;;;;26.08;13.30;;;9.90;99.90;;;;;;4975974;28;20498;-82
2022/12/21 04:58:32;;;;;;;27.38;13.60;;;9.90;99.90;;;;;;4954839;28;20038;-82
2022/12/21 05:00:58;;;;;;;21.30;10.88;;;9.90;99.90;;;;;;4969519;28;20469;-83
2022/12/21 05:03:24;;;;;;;23.27;11.65;;;9.90;99.90;;;;;;4970920;28;20034;-82
2022/12/21 05:05:49;;;;;;;22.48;11.75;;;9.90;99.90;;;;;;4971252;28;20034;-82
2022/12/21 05:08:15;;;;;;;18.35;10.07;;;9.90;99.90;;;;;;4952788;28;20034;-83
2022/12/21 05:10:40;;;;;;;25.45;12.20;;;9.90;99.90;;;;;;4952999;28;20045;-82
2022/12/21 05:13:06;;;;;;;29.00;13.82;;;9.80;99.90;;;;;;4970483;28;20751;-83
2022/12/21 05:15:37;;;;;;;19.13;10.73;;;9.90;99.90;;;;;;4953866;28;20026;-82
2022/12/21 05:18:03;;;;;;;19.60;9.38;;;9.90;99.90;;;;;;4954027;28;20050;-82
2022/12/21 05:20:29;;;;;;;17.73;9.93;;;9.80;99.90;;;;;;4953499;28;20022;-82
2022/12/21 05:22:54;;;;;;;23.73;11.68;;;9.90;99.90;;;;;;4967478;28;20037;-81
2022/12/21 05:25:20;;;;;;;23.65;11.77;;;9.90;99.90;;;;;;4961553;28;20093;-81
2022/12/21 05:27:45;;;;;;;17.75;10.00;;;9.90;99.90;;;;;;4949821;28;20080;-82
2022/12/21 05:30:12;;;;;;;19.83;10.60;;;9.80;99.90;;;;;;4955464;28;20437;-82
2022/12/21 05:32:38;;;;;;;20.95;10.02;;;9.80;99.90;;;;;;4953693;28;20027;-82
2022/12/21 05:35:03;;;;;;;16.88;8.27;;;9.80;99.90;;;;;;4945665;28;20517;-82
2022/12/21 05:37:29;;;;;;;19.85;8.38;;;9.80;99.90;;;;;;4948194;28;20085;-82
2022/12/21 05:39:55;;;;;;;14.40;8.65;;;9.80;99.90;;;;;;4953865;28;20042;-82
2022/12/21 05:42:20;;;;;;;15.77;8.77;;;9.80;99.90;;;;;;4988399;28;20398;-82
2022/12/21 05:44:46;;;;;;;16.80;9.05;;;9.80;99.90;;;;;;4952181;28;20038;-82
2022/12/21 05:47:11;;;;;;;17.48;9.82;;;9.80;99.90;;;;;;4985239;28;20553;-82
2022/12/21 05:49:37;;;;;;;15.55;9.48;;;9.80;99.90;;;;;;4955558;28;20729;-82
2022/12/21 05:52:02;;;;;;;12.77;7.50;;;9.80;99.90;;;;;;4954540;28;20038;-83
2022/12/21 05:54:28;;;;;;;13.52;7.65;;;9.80;99.90;;;;;;4962411;28;20030;-82
2022/12/21 05:56:53;;;;;;;14.52;8.57;;;9.70;99.90;;;;;;4966379;28;20038;-82
2022/12/21 05:59:22;;;;;;;13.57;7.53;;;9.80;99.90;;;;;;4951770;28;21292;-83
2022/12/21 06:01:50;;;;;;;13.73;7.40;;;9.80;99.90;;;;;;4966738;28;20125;-82
2022/12/21 06:04:16;;;;;;;10.45;6.13;;;9.80;99.90;;;;;;4968875;28;20065;-82
2022/12/21 06:06:41;;;;;;;13.43;7.10;;;9.80;99.90;;;;;;4968683;28;20066;-83
2022/12/21 06:09:07;;;;;;;11.52;7.05;;;9.70;99.90;;;;;;4970028;28;20069;-82
2022/12/21 06:11:32;;;;;;;11.63;6.78;;;9.70;99.90;;;;;;4966917;28;20053;-81
2022/12/21 06:13:58;;;;;;;11.35;6.05;;;9.80;99.90;;;;;;4967453;28;20057;-80
2022/12/21 06:16:25;;;;;;;10.52;6.30;;;9.80;99.90;;;;;;4943180;28;20506;-81
2022/12/21 06:18:51;;;;;;;10.50;6.40;;;9.80;99.90;;;;;;4956944;28;20026;-80
2022/12/21 06:21:17;;;;;;;10.40;6.22;;;9.80;99.90;;;;;;4968611;28;20041;-80
2022/12/21 06:23:43;;;;;;;10.20;5.80;;;9.80;99.90;;;;;;4951896;28;20054;-81
2022/12/21 06:26:12;;;;;;;11.02;5.82;;;9.70;99.90;;;;;;4952611;28;20033;-81
2022/12/21 06:28:37;;;;;;;10.05;5.93;;;9.70;99.90;;;;;;4955185;28;20038;-81
2022/12/21 06:31:11;;;;;;;10.00;5.72;;;9.80;99.90;;;;;;4966466;28;20042;-80
2022/12/21 06:33:37;;;;;;;10.05;5.80;;;9.80;99.90;;;;;;4956564;28;20026;-81
2022/12/21 06:36:03;;;;;;;8.30;5.80;;;9.80;99.90;;;;;;4966570;28;20065;-81
2022/12/21 06:38:29;;;;;;;8.80;6.32;;;9.80;99.90;;;;;;4965819;28;20549;-81
2022/12/21 06:40:56;;;;;;;8.02;5.32;;;9.80;99.90;;;;;;4966626;28;20039;-81
2022/12/21 06:43:26;;;;;;;8.63;5.72;;;9.70;99.90;;;;;;4948405;28;20088;-81
2022/12/21 06:46:02;;;;;;;10.15;6.53;;;9.70;99.90;;;;;;4952088;28;20461;-81
2022/12/21 06:48:28;;;;;;;10.63;7.38;;;9.60;99.90;;;;;;4971290;28;20133;-81
2022/12/21 06:50:54;;;;;;;11.10;7.15;;;9.60;99.90;;;;;;4968651;28;20117;-83
2022/12/21 06:53:21;;;;;;;14.55;8.65;;;9.60;99.90;;;;;;4949556;28;20435;-80
2022/12/21 06:55:47;;;;;;;15.63;8.25;;;9.60;99.90;;;;;;4958690;28;20486;-81
2022/12/21 06:58:13;;;;;;;10.13;6.28;;;9.60;99.90;;;;;;4958305;28;20030;-81
2022/12/21 07:00:39;;;;;;;12.90;7.80;;;9.60;99.90;;;;;;4946779;28;20049;-80
2022/12/21 07:03:04;;;;;;;12.60;7.35;;;9.60;99.90;;;;;;4966307;28;20027;-80
2022/12/21 07:05:30;;;;;;;14.73;8.02;;;9.60;99.90;;;;;;4951403;28;20502;-80
2022/12/21 07:07:56;;;;;;;15.27;7.65;;;9.60;99.90;;;;;;4947594;28;20055;-80
2022/12/21 07:10:21;;;;;;;12.35;7.13;;;9.60;99.90;;;;;;4955739;28;20450;-80
2022/12/21 07:12:47;;;;;;;15.20;6.32;;;9.60;99.90;;;;;;4958424;28;20709;-80
2022/12/21 07:15:13;;;;;;;10.32;6.90;;;9.60;99.90;;;;;;4965292;28;20589;-80
2022/12/21 07:17:40;;;;;;;12.63;6.70;;;9.70;99.90;;;;;;4953930;28;20034;-80
2022/12/21 07:20:06;;;;;;;11.95;6.80;;;9.70;99.90;;;;;;4952167;28;20375;-81
2022/12/21 07:22:32;;;;;;;14.55;8.07;;;9.70;99.90;;;;;;4966951;28;20493;-80
2022/12/21 07:24:58;;;;;;;11.95;7.07;;;9.60;99.90;;;;;;4967754;28;20042;-81
2022/12/21 07:27:23;;;;;;;14.63;8.52;;;9.60;99.90;;;;;;4966903;28;20088;-80
2022/12/21 07:29:49;;;;;;;11.75;6.90;;;9.60;99.90;;;;;;4950153;28;20070;-80
2022/12/21 07:32:14;;;;;;;10.88;7.38;;;9.60;99.90;;;;;;4967530;28;20034;-82
2022/12/21 07:34:40;;;;;;;12.02;7.90;;;9.70;99.90;;;;;;4950968;28;20383;-81
2022/12/21 07:37:05;;;;;;;10.77;6.88;;;9.60;99.90;;;;;;4965821;28;20490;-82
2022/12/21 07:39:31;;;;;;;13.75;8.88;;;9.50;99.90;;;;;;4942790;28;20054;-80
2022/12/21 07:41:56;;;;;;;11.20;6.10;;;9.60;99.90;;;;;;4971754;28;20104;-81
2022/12/21 07:44:22;;;;;;;13.25;7.13;;;9.60;99.90;;;;;;4960062;28;20543;-81
2022/12/21 07:46:47;;;;;;;14.98;8.57;;;9.50;99.90;;;;;;4970429;28;20034;-84
2022/12/21 07:49:13;;;;;;;14.90;8.90;;;9.50;99.90;;;;;;4955909;28;20042;-84
2022/12/21 07:51:39;;;;;;;15.55;8.63;;;9.60;99.90;;;;;;4987564;28;20494;-81
2022/12/21 07:54:04;;;;;;;13.68;8.57;;;9.50;99.90;;;;;;4970589;28;20133;-81
2022/12/21 07:56:30;;;;;;;13.40;7.38;;;9.40;99.90;;;;;;4970562;28;20058;-81
2022/12/21 07:58:58;;;;;;;14.98;7.43;;;9.50;99.90;;;;;;4970403;28;20042;-81
2022/12/21 08:01:26;;;;;;;8.27;5.68;;;9.50;99.90;;;;;;4955463;28;20042;-81
2022/12/21 08:03:52;;;;;;;11.57;7.47;;;9.50;99.90;;;;;;4970647;28;20026;-84
2022/12/21 08:06:17;;;;;;;10.88;6.85;;;9.50;99.90;;;;;;4949108;28;20407;-81
2022/12/21 08:08:43;;;;;;;8.80;5.65;;;9.60;99.90;;;;;;4971797;28;20042;-81
2022/12/21 08:11:15;;;;;;;12.48;7.55;;;9.60;99.90;;;;;;4954281;28;20093;-81
2022/12/21 08:13:41;;;;;;;12.95;8.20;;;9.60;99.90;;;;;;4972351;28;20045;-81
2022/12/21 08:16:08;;;;;;;15.57;8.10;;;9.60;99.90;;;;;;4955036;28;20026;-81
2022/12/21 08:18:34;;;;;;;18.23;10.18;;;9.60;99.90;;;;;;4957024;28;20050;-81
2022/12/21 08:20:59;;;;;;;18.25;9.38;;;9.60;99.90;;;;;;4970631;28;20126;-81
2022/12/21 08:23:25;;;;;;;12.68;7.53;;;9.60;99.90;;;;;;4956652;28;20030;-81
2022/12/21 08:25:51;;;;;;;18.63;10.73;;;9.60;99.90;;;;;;4958699;28;20038;-81
2022/12/21 08:28:16;;;;;;;20.85;10.27;;;9.60;99.90;;;;;;4951038;28;20088;-81
2022/12/21 08:30:42;;;;;;;24.90;10.90;;;9.60;99.90;;;;;;4954824;28;20034;-81
2022/12/21 08:33:09;;;;;;;23.25;11.75;;;9.60;99.90;;;;;;4985666;28;20062;-81
2022/12/21 08:35:35;;;;;;;18.77;8.98;;;9.60;99.90;;;;;;4948101;28;20023;-81
2022/12/21 08:38:00;;;;;;;25.08;11.43;;;9.60;99.90;;;;;;4970958;28;20033;-81
2022/12/21 08:40:26;;;;;;;28.75;13.35;;;9.60;99.90;;;;;;4949611;28;20030;-81
2022/12/21 08:42:52;;;;;;;29.08;12.35;;;9.60;99.90;;;;;;4950125;28;20037;-81
2022/12/21 08:45:17;;;;;;;19.17;9.27;;;9.60;99.90;;;;;;4951916;28;20035;-81
2022/12/21 08:47:43;;;;;;;35.13;13.40;;;9.60;99.90;;;;;;4953669;28;20022;-82
2022/12/21 08:50:09;;;;;;;33.40;13.45;;;9.70;99.90;;;;;;4963613;28;20512;-84
2022/12/21 08:52:34;;;;;;;21.58;9.95;;;9.70;99.90;;;;;;4963622;28;20039;-81
2022/12/21 08:55:00;;;;;;;25.90;11.68;;;9.70;99.90;;;;;;4957640;28;20490;-81
2022/12/21 08:57:25;;;;;;;37.97;16.30;;;9.70;99.90;;;;;;4953688;28;20030;-81
2022/12/21 08:59:51;;;;;;;39.38;16.50;;;9.70;99.90;;;;;;4947510;28;20037;-81
2022/12/21 09:02:16;;;;;;;37.53;14.88;;;9.70;99.90;;;;;;4942332;28;20109;-81
2022/12/21 09:04:42;;;;;;;33.92;14.63;;;9.70;99.90;;;;;;4927328;28;20125;-81
2022/12/21 09:07:08;;;;;;;35.55;14.80;;;9.80;99.90;;;;;;4952223;28;20057;-82
2022/12/21 09:09:33;;;;;;;34.50;15.15;;;9.70;99.90;;;;;;4954461;28;20046;-82
2022/12/21 09:12:00;;;;;;;29.00;13.00;;;9.70;99.90;;;;;;4952146;28;20061;-81
2022/12/21 09:14:28;;;;;;;37.97;14.68;;;9.70;99.90;;;;;;4948820;28;20088;-81
2022/12/21 09:16:54;;;;;;;36.88;14.57;;;9.70;99.90;;;;;;4957062;28;20052;-82
2022/12/21 09:19:19;;;;;;;43.08;14.82;;;9.70;99.90;;;;;;4950652;28;20362;-82
2022/12/21 09:21:45;;;;;;;37.28;13.63;;;9.70;99.90;;;;;;4951986;28;20039;-82
2022/12/21 09:24:10;;;;;;;42.00;14.23;;;9.70;99.90;;;;;;4949769;28;20038;-81
2022/12/21 09:26:36;;;;;;;38.33;12.23;;;9.70;99.90;;;;;;4951531;28;20029;-84
2022/12/21 09:29:02;;;;;;;29.42;11.48;;;9.70;99.90;;;;;;4969803;28;20046;-82
2022/12/21 09:31:27;;;;;;;38.33;12.93;;;9.70;99.90;;;;;;4952406;28;20030;-82
2022/12/21 09:33:54;;;;;;;38.95;14.10;;;9.80;99.90;;;;;;4951967;28;20402;-81
2022/12/21 09:36:19;;;;;;;36.95;12.93;;;9.80;99.90;;;;;;4967001;28;20137;-83
2022/12/21 09:38:45;;;;;;;38.60;13.65;;;9.80;99.90;;;;;;4949748;28;20113;-83
2022/12/21 09:41:24;;;;;;;26.25;11.05;;;9.70;99.90;;;;;;4949127;28;20035;-82
2022/12/21 09:44:26;;;;;;;40.88;14.07;;;9.80;99.90;;;;;;4944989;28;20084;-81
2022/12/21 09:46:53;;;;;;;33.00;11.98;;;9.70;99.90;;;;;;4982558;28;20061;-81
2022/12/21 09:49:21;;;;;;;30.30;12.82;;;9.80;99.90;;;;;;4949175;28;20121;-82
2022/12/21 09:52:06;;;;;;;22.38;8.77;;;9.70;99.90;;;;;;4941745;28;20082;-81
2022/12/21 09:54:55;;;;;;;23.45;9.88;;;9.70;99.90;;;;;;4963833;28;20030;-81
2022/12/21 09:57:21;;;;;;;10.85;4.63;;;9.70;99.90;;;;;;4974129;28;20038;-81
2022/12/21 09:59:48;;;;;;;21.85;9.52;;;9.60;99.90;;;;;;4948728;28;20035;-81
2022/12/21 10:02:22;;;;;;;10.98;5.55;;;9.70;99.90;;;;;;4951839;28;20367;-84
2022/12/21 10:05:18;;;;;;;14.95;8.77;;;9.70;99.90;;;;;;4962833;28;20597;-83
2022/12/21 10:08:05;;;;;;;17.30;7.53;;;9.60;99.90;;;;;;4936107;28;20380;-82
2022/12/21 10:10:36;;;;;;;19.13;7.90;;;9.70;99.90;;;;;;4963832;28;20037;-84
2022/12/21 10:13:36;;;;;;;21.65;9.65;;;9.70;99.90;;;;;;4955634;28;20030;-83
2022/12/21 10:16:41;;;;;;;20.23;9.93;;;9.70;99.90;;;;;;4951671;28;20043;-82
2022/12/21 10:19:22;;;;;;;16.33;8.00;;;9.70;99.90;;;;;;4947621;28;20471;-85
2022/12/21 10:22:15;;;;;;;15.18;7.20;;;9.60;99.90;;;;;;4973123;28;20093;-83
2022/12/21 10:25:03;;;;;;;18.83;9.23;;;9.70;99.90;;;;;;5045040;27;20479;-83
2022/12/21 10:27:43;;;;;;;18.42;10.15;;;9.60;99.90;;;;;;4968499;28;20048;-83
2022/12/21 10:30:12;;;;;;;19.33;9.85;;;9.70;99.90;;;;;;5025947;28;20040;-83
2022/12/21 10:32:48;;;;;;;18.42;10.18;;;9.60;99.90;;;;;;4987940;28;20048;-85
2022/12/21 10:35:36;;;;;;;20.58;10.80;;;9.60;99.90;;;;;;4980537;28;20033;-84
2022/12/21 10:38:14;;;;;;;8.48;4.40;;;9.60;99.90;;;;;;4992740;28;20129;-83
2022/12/21 10:40:48;;;;;;;26.55;12.43;;;9.60;99.90;;;;;;5014526;28;20037;-83
2022/12/21 10:43:13;;;;;;;14.70;6.68;;;9.60;99.90;;;;;;5017743;28;20041;-84
2022/12/21 10:45:39;;;;;;;28.15;15.82;;;9.60;99.90;;;;;;5008829;28;20497;-83
2022/12/21 10:48:05;;;;;;;23.83;13.93;;;9.60;99.90;;;;;;5012038;28;22187;-83
2022/12/21 10:50:37;;;;;;;21.90;12.13;;;9.60;99.90;;;;;;4996933;28;20769;-84
2022/12/21 10:53:24;;;;;;;30.00;15.82;;;9.60;99.90;;;;;;5013535;28;20750;-83
2022/12/21 10:55:59;;;;;;;24.58;11.73;;;9.50;99.90;;;;;;5017866;28;20030;-83
2022/12/21 10:58:34;;;;;;;21.13;10.52;;;9.60;99.90;;;;;;5018390;28;20030;-84
2022/12/21 11:01:17;;;;;;;25.98;13.52;;;9.60;99.90;;;;;;4995148;28;20096;-84
2022/12/21 11:03:52;;;;;;;20.05;10.52;;;9.80;99.90;;;;;;4987765;28;20088;-84
2022/12/21 11:06:19;;;;;;;21.55;9.95;;;9.70;99.90;;;;;;4977739;28;20115;-84
2022/12/21 11:08:46;;;;;;;22.17;12.40;;;9.60;99.90;;;;;;4986597;28;20033;-85
2022/12/21 11:11:35;;;;;;;26.40;11.75;;;9.70;99.90;;;;;;5016996;28;20069;-84
2022/12/21 11:14:22;;;;;;;20.35;11.10;;;9.80;99.90;;;;;;5002363;28;20034;-82
2022/12/21 11:16:47;;;;;;;15.05;6.32;;;9.70;99.90;;;;;;4991607;28;20176;-84
2022/12/21 11:19:15;;;;;;;24.55;7.45;;;9.70;99.90;;;;;;5017600;28;20038;-84
2022/12/21 11:21:48;;;;;;;19.48;9.73;;;9.70;99.90;;;;;;4986984;28;20049;-84
2022/12/21 11:24:17;;;;;;;23.90;12.80;;;9.80;99.90;;;;;;5003866;28;20041;-83
2022/12/21 11:26:45;;;;;;;22.23;11.73;;;9.80;99.90;;;;;;5007894;28;20050;-83
2022/12/21 11:29:18;;;;;;;20.58;10.25;;;9.90;99.90;;;;;;5002061;28;20033;-83
2022/12/21 11:31:47;;;;;;;23.75;11.80;;;9.90;99.90;;;;;;5005432;28;20025;-84
2022/12/21 11:34:29;;;;;;;16.90;9.02;;;9.90;99.90;;;;;;5017979;28;20359;-83
2022/12/21 11:37:00;;;;;;;9.77;4.95;;;10.00;99.90;;;;;;4987890;28;20034;-84
2022/12/21 11:39:32;;;;;;;21.48;9.80;;;10.00;99.90;;;;;;5006772;28;20038;-83
2022/12/21 11:41:58;;;;;;;19.27;9.18;;;10.10;99.90;;;;;;5001865;28;20495;-83
2022/12/21 11:44:29;;;;;;;17.23;9.15;;;10.00;99.90;;;;;;4955083;28;20039;-83
2022/12/21 11:47:01;;;;;;;14.20;6.72;;;10.00;99.90;;;;;;4971623;28;20544;-83
2022/12/21 11:50:05;;;;;;;21.58;9.13;;;10.00;99.90;;;;;;4990276;28;20545;-83
2022/12/21 11:52:55;;;;;;;19.42;8.50;;;10.00;99.90;;;;;;5004798;28;20061;-83
2022/12/21 11:55:38;;;;;;;14.65;5.78;;;10.00;99.90;;;;;;4998853;28;20339;-83
2022/12/21 11:58:40;;;;;;;15.95;7.72;;;10.10;99.90;;;;;;4976637;28;20828;-83
2022/12/21 12:01:31;;;;;;;14.98;7.78;;;10.10;99.90;;;;;;4982635;28;20041;-83
2022/12/21 12:03:56;;;;;;;8.68;5.07;;;10.00;99.90;;;;;;4982169;28;20034;-83
2022/12/21 12:06:41;;;;;;;16.00;7.57;;;10.10;99.90;;;;;;5006145;28;20029;-83
2022/12/21 12:09:34;;;;;;;15.65;7.45;;;10.00;99.90;;;;;;4995472;28;20033;-83
2022/12/21 12:12:20;;;;;;;13.00;5.32;;;10.00;99.90;;;;;;4965267;28;20030;-83
2022/12/21 12:15:16;;;;;;;21.98;7.65;;;10.00;99.90;;;;;;5004906;28;20030;-83
2022/12/21 12:17:55;;;;;;;5.10;2.77;;;10.00;99.90;;;;;;4996330;28;20050;-83
2022/12/21 12:20:35;;;;;;;14.70;7.15;;;10.00;99.90;;;;;;4981595;28;20277;-83
2022/12/21 12:23:10;;;;;;;17.05;7.95;;;10.00;99.90;;;;;;5001304;28;20517;-83
2022/12/21 12:25:44;;;;;;;12.25;5.30;;;10.00;99.90;;;;;;4994366;28;20056;-83
2022/12/21 12:28:50;;;;;;;18.17;5.03;;;9.90;99.90;;;;;;5000689;28;20041;-83
2022/12/21 12:31:54;;;;;;;9.90;3.13;;;10.00;99.90;;;;;;5001808;28;20062;-83
2022/12/21 12:34:33;;;;;;;13.13;5.50;;;10.00;99.90;;;;;;4984093;28;20104;-82
2022/12/21 12:37:06;;;;;;;15.60;5.13;;;10.00;99.90;;;;;;4986985;28;20121;-83
2022/12/21 12:39:47;;;;;;;14.23;6.80;;;10.00;99.90;;;;;;4989607;28;20122;-83
2022/12/21 12:42:27;;;;;;;11.65;4.15;;;10.00;99.90;;;;;;5001810;28;20041;-83
2022/12/21 12:45:17;;;;;;;15.85;6.28;;;9.90;99.90;;;;;;4972680;28;20517;-82
2022/12/21 12:47:48;;;;;;;15.48;6.43;;;9.90;99.90;;;;;;4967757;28;20034;-83
2022/12/21 12:50:17;;;;;;;16.92;6.20;;;9.80;99.90;;;;;;4993431;28;20030;-81
2022/12/21 12:52:58;;;;;;;13.38;5.72;;;9.80;99.90;;;;;;4989113;28;20029;-83
2022/12/21 12:55:58;;;;;;;17.17;5.95;;;9.80;99.90;;;;;;4989279;28;20372;-82
2022/12/21 12:58:37;;;;;;;16.23;7.03;;;9.80;99.90;;;;;;4978401;28;20500;-82
2022/12/21 13:01:11;;;;;;;12.00;5.22;;;9.80;99.90;;;;;;4978428;28;20030;-83
2022/12/21 13:04:03;;;;;;;13.10;4.75;;;9.80;99.90;;;;;;4977375;28;20265;-83
2022/12/21 13:06:38;;;;;;;14.13;6.20;;;9.70;99.90;;;;;;4966675;28;20060;-83
2022/12/21 13:09:13;;;;;;;16.90;6.50;;;9.60;99.90;;;;;;4969872;28;20728;-83
2022/12/21 13:12:04;;;;;;;5.53;3.10;;;9.70;99.90;;;;;;4984310;28;20567;-83
2022/12/21 13:14:46;;;;;;;15.75;5.43;;;9.60;99.90;;;;;;4988825;28;20037;-83
2022/12/21 13:17:47;;;;;;;10.77;4.38;;;9.60;99.90;;;;;;4985593;28;20508;-84